Purki — 9HA2386 — position and weather

sailwx.info

Track history (hours):
 
Tides and Currents Weather Stations Pressure Air Temp Water Temp Dewpoint Dewpoint Depression Visibility Wind Speed Wind Dir Waves Ship Positions

Purki

Last reported at 2015-Feb-01 09:33 UTC. Time now 2015-Feb-02 01:50 UTC.
Position N 37°46' E 025°43'.

Length 147 m; draft 7 m.

Type: Cargo ship. MMSI: 248495000.

Date/timePositionNaut miles runAvg speedWind from/ knotsBaromVisibWave heightAir tempDewpointWater temp
2015-Feb-01 09:33N 37°46' E 025°43'1313.5
2015-Feb-01 08:34N 37°34' E 025°36'1413.3
2015-Feb-01 07:32N 37°23' E 025°26'1313.4
2015-Feb-01 06:33N 37°17' E 025°11'1413.7
2015-Feb-01 05:33N 37°09' E 024°57'2013.8
2015-Feb-01 04:05N 36°50' E 024°50'1013.6
2015-Feb-01 03:22N 36°41' E 024°45'1113.5
2015-Feb-01 02:33N 36°34' E 024°34'1413.9
2015-Feb-01 01:33N 36°24' E 024°21'  
Track history (hours):
 
Tides and Currents Weather Stations Pressure Air Temp Water Temp Dewpoint Dewpoint Depression Visibility Wind Speed Wind Dir Waves Ship Positions

Purki

Last reported at 2015-Feb-01 09:33 UTC. Time now 2015-Feb-02 01:50 UTC.
Position N 37°46' E 025°43'.

Length 147 m; draft 7 m.

Type: Cargo ship. MMSI: 248495000.

Date/timePositionNaut miles runAvg speedWind from/ knotsBaromVisibWave heightAir tempDewpointWater temp
2015-Feb-01 09:33N 37°46' E 025°43'1313.5
2015-Feb-01 08:34N 37°34' E 025°36'1413.3
2015-Feb-01 07:32N 37°23' E 025°26'1313.4
2015-Feb-01 06:33N 37°17' E 025°11'1413.7
2015-Feb-01 05:33N 37°09' E 024°57'2013.8
2015-Feb-01 04:05N 36°50' E 024°50'1013.6
2015-Feb-01 03:22N 36°41' E 024°45'1113.5
2015-Feb-01 02:33N 36°34' E 024°34'1413.9
2015-Feb-01 01:33N 36°24' E 024°21'  

Dump ship's entire track history